sensor_id;sensor_type;location;lat;lon;timestamp;temperature;humidity
40253;DHT22;25972;51.854;4.534;2022-11-15T00:01:22;7.60;99.90
40253;DHT22;25972;51.854;4.534;2022-11-15T00:04:07;7.80;99.90
40253;DHT22;25972;51.854;4.534;2022-11-15T00:06:51;7.70;99.90
40253;DHT22;25972;51.854;4.534;2022-11-15T00:09:38;7.70;99.90
40253;DHT22;25972;51.854;4.534;2022-11-15T00:12:22;7.80;99.90
40253;DHT22;25972;51.854;4.534;2022-11-15T00:15:07;7.70;99.90
40253;DHT22;25972;51.854;4.534;2022-11-15T00:17:51;7.80;99.90
40253;DHT22;25972;51.854;4.534;2022-11-15T00:20:36;7.70;99.90
40253;DHT22;25972;51.854;4.534;2022-11-15T00:23:20;7.90;99.90
40253;DHT22;25972;51.854;4.534;2022-11-15T00:26:04;7.90;99.90
40253;DHT22;25972;51.854;4.534;2022-11-15T00:28:52;7.80;99.90
40253;DHT22;25972;51.854;4.534;2022-11-15T00:31:37;7.70;99.90
40253;DHT22;25972;51.854;4.534;2022-11-15T00:34:21;7.90;99.90
40253;DHT22;25972;51.854;4.534;2022-11-15T00:37:06;8.00;99.90
40253;DHT22;25972;51.854;4.534;2022-11-15T00:39:50;7.80;99.90
40253;DHT22;25972;51.854;4.534;2022-11-15T00:42:34;8.00;99.90
40253;DHT22;25972;51.854;4.534;2022-11-15T00:45:18;8.00;99.90
40253;DHT22;25972;51.854;4.534;2022-11-15T00:48:03;7.90;99.90
40253;DHT22;25972;51.854;4.534;2022-11-15T00:50:49;8.00;99.90
40253;DHT22;25972;51.854;4.534;2022-11-15T00:53:33;8.00;99.90
40253;DHT22;25972;51.854;4.534;2022-11-15T00:56:18;7.90;99.90
40253;DHT22;25972;51.854;4.534;2022-11-15T00:59:02;8.20;99.90
40253;DHT22;25972;51.854;4.534;2022-11-15T01:01:47;8.10;99.90
40253;DHT22;25972;51.854;4.534;2022-11-15T01:04:31;7.90;99.90
40253;DHT22;25972;51.854;4.534;2022-11-15T01:07:15;8.20;99.90
40253;DHT22;25972;51.854;4.534;2022-11-15T01:10:00;8.00;99.90
40253;DHT22;25972;51.854;4.534;2022-11-15T01:12:44;8.20;99.90
40253;DHT22;25972;51.854;4.534;2022-11-15T01:15:29;8.10;99.90
40253;DHT22;25972;51.854;4.534;2022-11-15T01:18:13;8.20;99.90
40253;DHT22;25972;51.854;4.534;2022-11-15T01:20:57;8.00;99.90
40253;DHT22;25972;51.854;4.534;2022-11-15T01:23:42;8.10;99.90
40253;DHT22;25972;51.854;4.534;2022-11-15T01:26:27;8.30;99.90
40253;DHT22;25972;51.854;4.534;2022-11-15T01:29:11;8.30;99.90
40253;DHT22;25972;51.854;4.534;2022-11-15T01:31:55;8.40;99.90
40253;DHT22;25972;51.854;4.534;2022-11-15T01:34:39;8.30;99.90
40253;DHT22;25972;51.854;4.534;2022-11-15T01:37:24;8.50;99.90
40253;DHT22;25972;51.854;4.534;2022-11-15T01:40:08;8.30;99.90
40253;DHT22;25972;51.854;4.534;2022-11-15T01:42:53;8.50;99.90
40253;DHT22;25972;51.854;4.534;2022-11-15T01:45:38;8.40;99.90
40253;DHT22;25972;51.854;4.534;2022-11-15T01:48:25;8.60;99.90
40253;DHT22;25972;51.854;4.534;2022-11-15T01:51:15;8.50;99.90
40253;DHT22;25972;51.854;4.534;2022-11-15T01:54:05;8.50;99.90
40253;DHT22;25972;51.854;4.534;2022-11-15T01:56:59;8.50;99.90
40253;DHT22;25972;51.854;4.534;2022-11-15T01:59:44;8.70;99.90
40253;DHT22;25972;51.854;4.534;2022-11-15T02:02:30;8.60;99.90
40253;DHT22;25972;51.854;4.534;2022-11-15T02:05:14;8.60;99.90
40253;DHT22;25972;51.854;4.534;2022-11-15T02:08:00;8.90;99.90
40253;DHT22;25972;51.854;4.534;2022-11-15T02:10:45;9.00;99.90
40253;DHT22;25972;51.854;4.534;2022-11-15T02:13:29;8.70;99.90
40253;DHT22;25972;51.854;4.534;2022-11-15T02:22:45;8.90;99.90
40253;DHT22;25972;51.854;4.534;2022-11-15T02:25:37;9.20;99.90
40253;DHT22;25972;51.854;4.534;2022-11-15T02:32:04;9.20;99.90
40253;DHT22;25972;51.854;4.534;2022-11-15T02:37:55;9.40;99.90
40253;DHT22;25972;51.854;4.534;2022-11-15T02:43:53;9.50;99.90
40253;DHT22;25972;51.854;4.534;2022-11-15T02:46:51;9.60;99.90
40253;DHT22;25972;51.854;4.534;2022-11-15T02:50:03;9.40;99.90
40253;DHT22;25972;51.854;4.534;2022-11-15T02:52:49;9.70;99.90
40253;DHT22;25972;51.854;4.534;2022-11-15T02:55:43;9.70;99.90
40253;DHT22;25972;51.854;4.534;2022-11-15T03:07:33;9.50;99.90
40253;DHT22;25972;51.854;4.534;2022-11-15T03:10:29;9.60;99.90
40253;DHT22;25972;51.854;4.534;2022-11-15T03:13:30;9.50;99.90
40253;DHT22;25972;51.854;4.534;2022-11-15T03:19:43;9.80;99.90
40253;DHT22;25972;51.854;4.534;2022-11-15T03:22:30;9.90;99.90
40253;DHT22;25972;51.854;4.534;2022-11-15T03:25:20;9.60;99.90
40253;DHT22;25972;51.854;4.534;2022-11-15T03:28:09;9.60;99.90
40253;DHT22;25972;51.854;4.534;2022-11-15T03:30:56;9.80;99.90
40253;DHT22;25972;51.854;4.534;2022-11-15T03:33:40;9.80;99.90
40253;DHT22;25972;51.854;4.534;2022-11-15T03:36:26;9.80;99.90
40253;DHT22;25972;51.854;4.534;2022-11-15T03:39:11;10.00;99.90
40253;DHT22;25972;51.854;4.534;2022-11-15T03:42:17;9.90;99.90
40253;DHT22;25972;51.854;4.534;2022-11-15T03:45:23;10.10;99.90
40253;DHT22;25972;51.854;4.534;2022-11-15T03:48:14;9.90;99.90
40253;DHT22;25972;51.854;4.534;2022-11-15T03:51:00;10.10;99.90
40253;DHT22;25972;51.854;4.534;2022-11-15T03:53:45;10.00;99.90
40253;DHT22;25972;51.854;4.534;2022-11-15T03:56:30;10.10;99.90
40253;DHT22;25972;51.854;4.534;2022-11-15T03:59:15;9.90;99.90
40253;DHT22;25972;51.854;4.534;2022-11-15T04:01:59;10.30;99.90
40253;DHT22;25972;51.854;4.534;2022-11-15T04:04:43;9.90;99.90
40253;DHT22;25972;51.854;4.534;2022-11-15T04:07:28;9.90;99.90
40253;DHT22;25972;51.854;4.534;2022-11-15T04:10:12;10.10;99.90
40253;DHT22;25972;51.854;4.534;2022-11-15T04:12:57;10.20;99.90
40253;DHT22;25972;51.854;4.534;2022-11-15T04:15:41;10.10;99.90
40253;DHT22;25972;51.854;4.534;2022-11-15T04:18:25;10.10;99.90
40253;DHT22;25972;51.854;4.534;2022-11-15T04:21:09;10.50;99.90
40253;DHT22;25972;51.854;4.534;2022-11-15T04:24:13;10.10;99.90
40253;DHT22;25972;51.854;4.534;2022-11-15T04:26:57;10.60;99.90
40253;DHT22;25972;51.854;4.534;2022-11-15T04:29:42;10.60;99.90
40253;DHT22;25972;51.854;4.534;2022-11-15T04:32:26;10.40;99.90
40253;DHT22;25972;51.854;4.534;2022-11-15T04:35:11;10.30;99.90
40253;DHT22;25972;51.854;4.534;2022-11-15T04:37:57;10.20;99.90
40253;DHT22;25972;51.854;4.534;2022-11-15T04:40:41;10.40;99.90
40253;DHT22;25972;51.854;4.534;2022-11-15T04:43:26;10.60;99.90
40253;DHT22;25972;51.854;4.534;2022-11-15T04:46:10;10.30;99.90
40253;DHT22;25972;51.854;4.534;2022-11-15T04:48:55;10.50;99.90
40253;DHT22;25972;51.854;4.534;2022-11-15T04:51:39;10.30;99.90
40253;DHT22;25972;51.854;4.534;2022-11-15T04:54:24;10.40;99.90
40253;DHT22;25972;51.854;4.534;2022-11-15T04:57:08;10.60;99.90
40253;DHT22;25972;51.854;4.534;2022-11-15T04:59:53;10.70;99.90
40253;DHT22;25972;51.854;4.534;2022-11-15T05:02:37;10.50;99.90
40253;DHT22;25972;51.854;4.534;2022-11-15T05:05:41;10.80;99.90
40253;DHT22;25972;51.854;4.534;2022-11-15T05:08:26;10.50;99.90
40253;DHT22;25972;51.854;4.534;2022-11-15T05:11:10;10.90;99.90
40253;DHT22;25972;51.854;4.534;2022-11-15T05:13:55;10.90;99.90
40253;DHT22;25972;51.854;4.534;2022-11-15T05:16:39;10.90;99.90
40253;DHT22;25972;51.854;4.534;2022-11-15T05:19:24;10.50;99.90
40253;DHT22;25972;51.854;4.534;2022-11-15T05:22:08;10.60;99.90
40253;DHT22;25972;51.854;4.534;2022-11-15T05:24:53;10.60;99.90
40253;DHT22;25972;51.854;4.534;2022-11-15T05:27:37;10.80;99.90
40253;DHT22;25972;51.854;4.534;2022-11-15T05:30:21;10.50;99.90
40253;DHT22;25972;51.854;4.534;2022-11-15T05:33:06;10.70;99.90
40253;DHT22;25972;51.854;4.534;2022-11-15T05:35:56;10.60;99.90
40253;DHT22;25972;51.854;4.534;2022-11-15T05:38:45;10.80;99.90
40253;DHT22;25972;51.854;4.534;2022-11-15T05:41:41;10.70;99.90
40253;DHT22;25972;51.854;4.534;2022-11-15T05:44:27;10.40;99.90
40253;DHT22;25972;51.854;4.534;2022-11-15T05:47:17;10.70;99.90
40253;DHT22;25972;51.854;4.534;2022-11-15T05:50:03;10.40;99.90
40253;DHT22;25972;51.854;4.534;2022-11-15T05:52:48;10.50;99.90
40253;DHT22;25972;51.854;4.534;2022-11-15T05:55:32;10.60;99.90
40253;DHT22;25972;51.854;4.534;2022-11-15T05:58:18;10.70;99.90
40253;DHT22;25972;51.854;4.534;2022-11-15T06:01:03;10.50;99.90
40253;DHT22;25972;51.854;4.534;2022-11-15T06:03:48;10.60;99.90
40253;DHT22;25972;51.854;4.534;2022-11-15T06:06:32;10.60;99.90
40253;DHT22;25972;51.854;4.534;2022-11-15T06:09:17;10.40;99.90
40253;DHT22;25972;51.854;4.534;2022-11-15T06:12:01;10.60;99.90
40253;DHT22;25972;51.854;4.534;2022-11-15T06:14:46;10.40;99.90
40253;DHT22;25972;51.854;4.534;2022-11-15T06:17:30;10.40;99.90
40253;DHT22;25972;51.854;4.534;2022-11-15T06:20:15;10.40;99.90
40253;DHT22;25972;51.854;4.534;2022-11-15T06:23:01;10.30;99.90
40253;DHT22;25972;51.854;4.534;2022-11-15T06:25:46;10.10;99.90
40253;DHT22;25972;51.854;4.534;2022-11-15T06:28:32;10.20;99.90
40253;DHT22;25972;51.854;4.534;2022-11-15T06:31:17;10.20;99.90
40253;DHT22;25972;51.854;4.534;2022-11-15T06:34:01;10.00;99.90
40253;DHT22;25972;51.854;4.534;2022-11-15T06:36:46;10.00;99.90
40253;DHT22;25972;51.854;4.534;2022-11-15T06:39:30;10.20;99.90
40253;DHT22;25972;51.854;4.534;2022-11-15T06:42:15;9.90;99.90
40253;DHT22;25972;51.854;4.534;2022-11-15T06:44:59;10.00;99.90
40253;DHT22;25972;51.854;4.534;2022-11-15T06:47:47;10.00;99.90
40253;DHT22;25972;51.854;4.534;2022-11-15T06:50:31;9.90;99.90
40253;DHT22;25972;51.854;4.534;2022-11-15T06:53:15;10.00;99.90
40253;DHT22;25972;51.854;4.534;2022-11-15T06:56:01;9.90;99.90
40253;DHT22;25972;51.854;4.534;2022-11-15T06:58:46;10.10;99.90
40253;DHT22;25972;51.854;4.534;2022-11-15T07:01:31;9.90;99.90
40253;DHT22;25972;51.854;4.534;2022-11-15T07:04:15;10.10;99.90
40253;DHT22;25972;51.854;4.534;2022-11-15T07:06:59;9.90;99.90
40253;DHT22;25972;51.854;4.534;2022-11-15T07:09:43;9.90;99.90
40253;DHT22;25972;51.854;4.534;2022-11-15T07:12:28;10.00;99.90
40253;DHT22;25972;51.854;4.534;2022-11-15T07:15:12;9.80;99.90
40253;DHT22;25972;51.854;4.534;2022-11-15T07:18:00;9.90;99.90
40253;DHT22;25972;51.854;4.534;2022-11-15T07:20:45;10.00;99.90
40253;DHT22;25972;51.854;4.534;2022-11-15T07:23:29;9.90;99.90
40253;DHT22;25972;51.854;4.534;2022-11-15T07:26:14;9.80;99.90
40253;DHT22;25972;51.854;4.534;2022-11-15T07:28:58;9.80;99.90
40253;DHT22;25972;51.854;4.534;2022-11-15T07:31:42;9.90;99.90
40253;DHT22;25972;51.854;4.534;2022-11-15T07:34:26;10.00;99.90
40253;DHT22;25972;51.854;4.534;2022-11-15T07:37:11;9.90;99.90
40253;DHT22;25972;51.854;4.534;2022-11-15T07:39:55;9.90;99.90
40253;DHT22;25972;51.854;4.534;2022-11-15T07:42:40;9.90;99.90
40253;DHT22;25972;51.854;4.534;2022-11-15T07:45:44;9.70;99.90
40253;DHT22;25972;51.854;4.534;2022-11-15T07:48:28;9.90;99.90
40253;DHT22;25972;51.854;4.534;2022-11-15T07:51:13;9.80;99.90
40253;DHT22;25972;51.854;4.534;2022-11-15T07:53:58;9.90;99.90
40253;DHT22;25972;51.854;4.534;2022-11-15T07:56:42;9.80;99.90
40253;DHT22;25972;51.854;4.534;2022-11-15T07:59:26;9.80;99.90
40253;DHT22;25972;51.854;4.534;2022-11-15T08:02:11;9.80;99.90
40253;DHT22;25972;51.854;4.534;2022-11-15T08:04:56;9.80;99.90
40253;DHT22;25972;51.854;4.534;2022-11-15T08:07:40;9.80;99.90
40253;DHT22;25972;51.854;4.534;2022-11-15T08:10:26;9.80;99.90
40253;DHT22;25972;51.854;4.534;2022-11-15T08:13:11;9.90;99.90
40253;DHT22;25972;51.854;4.534;2022-11-15T08:16:00;10.00;99.90
40253;DHT22;25972;51.854;4.534;2022-11-15T08:18:45;10.00;99.90
40253;DHT22;25972;51.854;4.534;2022-11-15T08:21:30;9.90;99.90
40253;DHT22;25972;51.854;4.534;2022-11-15T08:24:14;10.10;99.90
40253;DHT22;25972;51.854;4.534;2022-11-15T08:26:59;10.10;99.90
40253;DHT22;25972;51.854;4.534;2022-11-15T08:29:45;10.20;99.90
40253;DHT22;25972;51.854;4.534;2022-11-15T08:32:31;10.30;99.90
40253;DHT22;25972;51.854;4.534;2022-11-15T08:35:15;10.30;99.90
40253;DHT22;25972;51.854;4.534;2022-11-15T08:38:00;10.30;99.90
40253;DHT22;25972;51.854;4.534;2022-11-15T08:40:44;10.50;99.90
40253;DHT22;25972;51.854;4.534;2022-11-15T08:43:29;10.50;99.90
40253;DHT22;25972;51.854;4.534;2022-11-15T08:46:13;10.70;99.90
40253;DHT22;25972;51.854;4.534;2022-11-15T08:48:58;10.60;99.90
40253;DHT22;25972;51.854;4.534;2022-11-15T08:51:42;10.80;99.90
40253;DHT22;25972;51.854;4.534;2022-11-15T08:54:27;10.90;99.90
40253;DHT22;25972;51.854;4.534;2022-11-15T08:57:11;11.00;99.90
40253;DHT22;25972;51.854;4.534;2022-11-15T08:59:55;11.10;99.90
40253;DHT22;25972;51.854;4.534;2022-11-15T09:02:40;11.30;99.90
40253;DHT22;25972;51.854;4.534;2022-11-15T09:05:25;11.30;99.90
40253;DHT22;25972;51.854;4.534;2022-11-15T09:08:09;11.40;99.90
40253;DHT22;25972;51.854;4.534;2022-11-15T09:10:54;11.40;99.90
40253;DHT22;25972;51.854;4.534;2022-11-15T09:13:38;11.40;99.90
40253;DHT22;25972;51.854;4.534;2022-11-15T09:16:23;11.40;99.90
40253;DHT22;25972;51.854;4.534;2022-11-15T09:19:07;11.40;99.90
40253;DHT22;25972;51.854;4.534;2022-11-15T09:21:52;11.30;99.90
40253;DHT22;25972;51.854;4.534;2022-11-15T09:24:37;11.40;99.90
40253;DHT22;25972;51.854;4.534;2022-11-15T09:27:21;11.40;99.90
40253;DHT22;25972;51.854;4.534;2022-11-15T09:30:06;11.40;99.90
40253;DHT22;25972;51.854;4.534;2022-11-15T09:32:50;11.40;99.90
40253;DHT22;25972;51.854;4.534;2022-11-15T09:35:35;11.50;99.90
40253;DHT22;25972;51.854;4.534;2022-11-15T09:38:19;11.50;99.90
40253;DHT22;25972;51.854;4.534;2022-11-15T09:50:15;11.70;99.90
40253;DHT22;25972;51.854;4.534;2022-11-15T09:52:44;11.70;99.90
40253;DHT22;25972;51.854;4.534;2022-11-15T09:55:12;11.80;99.90
40253;DHT22;25972;51.854;4.534;2022-11-15T10:00:40;11.70;99.90
40253;DHT22;25972;51.854;4.534;2022-11-15T10:03:27;11.60;99.90
40253;DHT22;25972;51.854;4.534;2022-11-15T10:06:02;11.70;99.90
40253;DHT22;25972;51.854;4.534;2022-11-15T10:11:25;11.90;99.90
40253;DHT22;25972;51.854;4.534;2022-11-15T10:13:54;12.20;99.90
40253;DHT22;25972;51.854;4.534;2022-11-15T10:27:35;13.80;99.90
40253;DHT22;25972;51.854;4.534;2022-11-15T10:30:01;13.80;99.90
40253;DHT22;25972;51.854;4.534;2022-11-15T10:32:29;13.60;99.90
40253;DHT22;25972;51.854;4.534;2022-11-15T10:34:57;13.40;99.90
40253;DHT22;25972;51.854;4.534;2022-11-15T10:37:31;13.20;99.90
40253;DHT22;25972;51.854;4.534;2022-11-15T10:42:42;13.00;99.90
40253;DHT22;25972;51.854;4.534;2022-11-15T10:45:34;13.00;99.90
40253;DHT22;25972;51.854;4.534;2022-11-15T10:48:20;12.80;99.90
40253;DHT22;25972;51.854;4.534;2022-11-15T10:50:49;12.70;99.90
40253;DHT22;25972;51.854;4.534;2022-11-15T10:53:36;12.60;99.90
40253;DHT22;25972;51.854;4.534;2022-11-15T10:56:07;12.50;99.90
40253;DHT22;25972;51.854;4.534;2022-11-15T10:58:37;12.40;99.90
40253;DHT22;25972;51.854;4.534;2022-11-15T11:01:15;12.40;99.90
40253;DHT22;25972;51.854;4.534;2022-11-15T11:03:43;12.40;99.90
40253;DHT22;25972;51.854;4.534;2022-11-15T11:06:17;12.50;99.90
40253;DHT22;25972;51.854;4.534;2022-11-15T11:09:01;12.50;99.90
40253;DHT22;25972;51.854;4.534;2022-11-15T11:14:21;12.40;99.90
40253;DHT22;25972;51.854;4.534;2022-11-15T11:16:52;12.30;99.90
40253;DHT22;25972;51.854;4.534;2022-11-15T11:19:29;12.30;99.90
40253;DHT22;25972;51.854;4.534;2022-11-15T11:28:20;12.40;99.90
40253;DHT22;25972;51.854;4.534;2022-11-15T11:31:13;12.40;99.90
40253;DHT22;25972;51.854;4.534;2022-11-15T11:34:07;12.50;99.90
40253;DHT22;25972;51.854;4.534;2022-11-15T11:45:21;12.90;99.90
40253;DHT22;25972;51.854;4.534;2022-11-15T11:48:14;12.90;99.90
40253;DHT22;25972;51.854;4.534;2022-11-15T11:50:46;12.90;99.90
40253;DHT22;25972;51.854;4.534;2022-11-15T11:53:30;12.80;99.90
40253;DHT22;25972;51.854;4.534;2022-11-15T11:56:02;12.90;99.90
40253;DHT22;25972;51.854;4.534;2022-11-15T11:58:44;12.90;99.90
40253;DHT22;25972;51.854;4.534;2022-11-15T12:01:32;12.90;99.90
40253;DHT22;25972;51.854;4.534;2022-11-15T12:04:36;13.00;99.90
40253;DHT22;25972;51.854;4.534;2022-11-15T12:07:37;12.90;99.90
40253;DHT22;25972;51.854;4.534;2022-11-15T12:10:19;12.90;99.90
40253;DHT22;25972;51.854;4.534;2022-11-15T12:15:15;12.90;99.90
40253;DHT22;25972;51.854;4.534;2022-11-15T12:17:42;12.90;99.90
40253;DHT22;25972;51.854;4.534;2022-11-15T12:20:24;12.90;99.90
40253;DHT22;25972;51.854;4.534;2022-11-15T12:25:44;12.90;99.90
40253;DHT22;25972;51.854;4.534;2022-11-15T12:31:06;12.90;99.90
40253;DHT22;25972;51.854;4.534;2022-11-15T12:33:42;12.90;99.90
40253;DHT22;25972;51.854;4.534;2022-11-15T12:38:59;12.90;99.90
40253;DHT22;25972;51.854;4.534;2022-11-15T12:41:27;12.80;99.90
40253;DHT22;25972;51.854;4.534;2022-11-15T12:43:53;12.80;99.90
40253;DHT22;25972;51.854;4.534;2022-11-15T13:02:36;12.60;99.90
40253;DHT22;25972;51.854;4.534;2022-11-15T13:23:00;12.70;99.90
40253;DHT22;25972;51.854;4.534;2022-11-15T13:30:51;12.50;99.90
40253;DHT22;25972;51.854;4.534;2022-11-15T13:35:59;12.50;99.90
40253;DHT22;25972;51.854;4.534;2022-11-15T13:38:32;12.50;99.90
40253;DHT22;25972;51.854;4.534;2022-11-15T13:40:59;12.50;99.90
40253;DHT22;25972;51.854;4.534;2022-11-15T13:43:35;12.50;99.90
40253;DHT22;25972;51.854;4.534;2022-11-15T13:48:45;12.50;99.90
40253;DHT22;25972;51.854;4.534;2022-11-15T13:53:58;12.50;99.90
40253;DHT22;25972;51.854;4.534;2022-11-15T13:56:26;12.40;99.90
40253;DHT22;25972;51.854;4.534;2022-11-15T13:58:53;12.40;99.90
40253;DHT22;25972;51.854;4.534;2022-11-15T14:01:21;12.40;99.90
40253;DHT22;25972;51.854;4.534;2022-11-15T14:03:56;12.40;99.90
40253;DHT22;25972;51.854;4.534;2022-11-15T14:06:25;12.40;99.90
40253;DHT22;25972;51.854;4.534;2022-11-15T14:11:37;12.40;99.90
40253;DHT22;25972;51.854;4.534;2022-11-15T14:14:14;12.40;99.90
40253;DHT22;25972;51.854;4.534;2022-11-15T14:16:43;12.40;99.90
40253;DHT22;25972;51.854;4.534;2022-11-15T14:24:45;12.40;99.90
40253;DHT22;25972;51.854;4.534;2022-11-15T14:27:27;12.40;99.90
40253;DHT22;25972;51.854;4.534;2022-11-15T14:29:54;12.30;99.90
40253;DHT22;25972;51.854;4.534;2022-11-15T14:32:27;12.30;99.90
40253;DHT22;25972;51.854;4.534;2022-11-15T14:35:02;12.30;99.90
40253;DHT22;25972;51.854;4.534;2022-11-15T14:39:56;12.30;99.90
40253;DHT22;25972;51.854;4.534;2022-11-15T14:42:23;12.40;99.90
40253;DHT22;25972;51.854;4.534;2022-11-15T14:44:50;12.40;99.90
40253;DHT22;25972;51.854;4.534;2022-11-15T14:47:16;12.30;99.90
40253;DHT22;25972;51.854;4.534;2022-11-15T14:49:42;12.30;99.90
40253;DHT22;25972;51.854;4.534;2022-11-15T14:54:51;12.40;99.90
40253;DHT22;25972;51.854;4.534;2022-11-15T14:57:17;12.30;99.90
40253;DHT22;25972;51.854;4.534;2022-11-15T14:59:42;12.30;99.90
40253;DHT22;25972;51.854;4.534;2022-11-15T15:02:15;12.40;99.90
40253;DHT22;25972;51.854;4.534;2022-11-15T15:04:41;12.30;99.90
40253;DHT22;25972;51.854;4.534;2022-11-15T15:07:07;12.30;99.90
40253;DHT22;25972;51.854;4.534;2022-11-15T15:09:33;12.30;99.90
40253;DHT22;25972;51.854;4.534;2022-11-15T15:11:58;12.30;99.90
40253;DHT22;25972;51.854;4.534;2022-11-15T15:14:24;12.30;99.90
40253;DHT22;25972;51.854;4.534;2022-11-15T15:16:50;12.20;99.90
40253;DHT22;25972;51.854;4.534;2022-11-15T15:19:15;12.20;99.90
40253;DHT22;25972;51.854;4.534;2022-11-15T15:21:41;12.20;99.90
40253;DHT22;25972;51.854;4.534;2022-11-15T15:24:13;12.20;99.90
40253;DHT22;25972;51.854;4.534;2022-11-15T15:26:40;12.30;99.90
40253;DHT22;25972;51.854;4.534;2022-11-15T15:29:06;12.20;99.90
40253;DHT22;25972;51.854;4.534;2022-11-15T15:31:34;12.20;99.90
40253;DHT22;25972;51.854;4.534;2022-11-15T15:34:00;12.20;99.90
40253;DHT22;25972;51.854;4.534;2022-11-15T15:36:25;12.20;99.90
40253;DHT22;25972;51.854;4.534;2022-11-15T15:38:51;12.10;99.90
40253;DHT22;25972;51.854;4.534;2022-11-15T15:41:18;12.00;99.90
40253;DHT22;25972;51.854;4.534;2022-11-15T15:43:44;12.00;99.90
40253;DHT22;25972;51.854;4.534;2022-11-15T15:46:12;12.00;99.90
40253;DHT22;25972;51.854;4.534;2022-11-15T15:48:42;11.90;99.90
40253;DHT22;25972;51.854;4.534;2022-11-15T15:51:08;11.90;99.90
40253;DHT22;25972;51.854;4.534;2022-11-15T15:53:34;11.80;99.90
40253;DHT22;25972;51.854;4.534;2022-11-15T15:56:00;11.80;99.90
40253;DHT22;25972;51.854;4.534;2022-11-15T15:58:26;11.80;99.90
40253;DHT22;25972;51.854;4.534;2022-11-15T16:00:52;11.80;99.90
40253;DHT22;25972;51.854;4.534;2022-11-15T16:03:18;11.70;99.90
40253;DHT22;25972;51.854;4.534;2022-11-15T16:05:44;11.70;99.90
40253;DHT22;25972;51.854;4.534;2022-11-15T16:08:22;11.60;99.90
40253;DHT22;25972;51.854;4.534;2022-11-15T16:10:49;11.60;99.90
40253;DHT22;25972;51.854;4.534;2022-11-15T16:13:16;11.50;99.90
40253;DHT22;25972;51.854;4.534;2022-11-15T16:15:43;11.60;99.90
40253;DHT22;25972;51.854;4.534;2022-11-15T16:18:15;11.50;99.90
40253;DHT22;25972;51.854;4.534;2022-11-15T16:20:43;11.50;99.90
40253;DHT22;25972;51.854;4.534;2022-11-15T16:23:14;11.50;99.90
40253;DHT22;25972;51.854;4.534;2022-11-15T16:25:51;11.50;99.90
40253;DHT22;25972;51.854;4.534;2022-11-15T16:28:26;11.40;99.90
40253;DHT22;25972;51.854;4.534;2022-11-15T16:31:19;11.40;99.90
40253;DHT22;25972;51.854;4.534;2022-11-15T16:33:48;11.30;99.90
40253;DHT22;25972;51.854;4.534;2022-11-15T16:36:18;11.40;99.90
40253;DHT22;25972;51.854;4.534;2022-11-15T16:38:45;11.40;99.90
40253;DHT22;25972;51.854;4.534;2022-11-15T16:41:11;11.20;99.90
40253;DHT22;25972;51.854;4.534;2022-11-15T16:43:36;11.20;99.90
40253;DHT22;25972;51.854;4.534;2022-11-15T16:46:08;11.20;99.90
40253;DHT22;25972;51.854;4.534;2022-11-15T16:48:37;11.20;99.90
40253;DHT22;25972;51.854;4.534;2022-11-15T16:51:04;11.20;99.90
40253;DHT22;25972;51.854;4.534;2022-11-15T16:53:30;11.20;99.90
40253;DHT22;25972;51.854;4.534;2022-11-15T16:55:56;11.20;99.90
40253;DHT22;25972;51.854;4.534;2022-11-15T16:58:22;11.30;99.90
40253;DHT22;25972;51.854;4.534;2022-11-15T17:00:52;11.20;99.90
40253;DHT22;25972;51.854;4.534;2022-11-15T17:03:19;11.10;99.90
40253;DHT22;25972;51.854;4.534;2022-11-15T17:05:45;11.10;99.90
40253;DHT22;25972;51.854;4.534;2022-11-15T17:08:10;11.10;99.90
40253;DHT22;25972;51.854;4.534;2022-11-15T17:10:39;11.10;99.90
40253;DHT22;25972;51.854;4.534;2022-11-15T17:13:13;11.10;99.90
40253;DHT22;25972;51.854;4.534;2022-11-15T17:15:39;11.10;99.90
40253;DHT22;25972;51.854;4.534;2022-11-15T17:18:05;11.10;99.90
40253;DHT22;25972;51.854;4.534;2022-11-15T17:20:31;11.10;99.90
40253;DHT22;25972;51.854;4.534;2022-11-15T17:22:57;11.10;99.90
40253;DHT22;25972;51.854;4.534;2022-11-15T17:25:22;11.00;99.90
40253;DHT22;25972;51.854;4.534;2022-11-15T17:27:48;11.20;99.90
40253;DHT22;25972;51.854;4.534;2022-11-15T17:30:15;11.10;99.90
40253;DHT22;25972;51.854;4.534;2022-11-15T17:32:41;11.20;99.90
40253;DHT22;25972;51.854;4.534;2022-11-15T17:35:08;11.20;99.90
40253;DHT22;25972;51.854;4.534;2022-11-15T17:37:35;11.10;99.90
40253;DHT22;25972;51.854;4.534;2022-11-15T17:40:01;11.20;99.90
40253;DHT22;25972;51.854;4.534;2022-11-15T17:42:27;11.30;99.90
40253;DHT22;25972;51.854;4.534;2022-11-15T17:44:53;11.20;99.90
40253;DHT22;25972;51.854;4.534;2022-11-15T17:47:19;11.10;99.90
40253;DHT22;25972;51.854;4.534;2022-11-15T17:49:44;11.10;99.90
40253;DHT22;25972;51.854;4.534;2022-11-15T17:52:10;11.10;99.90
40253;DHT22;25972;51.854;4.534;2022-11-15T17:54:36;11.10;99.90
40253;DHT22;25972;51.854;4.534;2022-11-15T17:57:02;11.10;99.90
40253;DHT22;25972;51.854;4.534;2022-11-15T17:59:28;11.20;99.90
40253;DHT22;25972;51.854;4.534;2022-11-15T18:01:54;11.30;99.90
40253;DHT22;25972;51.854;4.534;2022-11-15T18:04:20;11.30;99.90
40253;DHT22;25972;51.854;4.534;2022-11-15T18:06:45;11.30;99.90
40253;DHT22;25972;51.854;4.534;2022-11-15T18:09:11;11.10;99.90
40253;DHT22;25972;51.854;4.534;2022-11-15T18:11:39;11.40;99.90
40253;DHT22;25972;51.854;4.534;2022-11-15T18:14:09;11.10;99.90
40253;DHT22;25972;51.854;4.534;2022-11-15T18:16:37;11.10;99.90
40253;DHT22;25972;51.854;4.534;2022-11-15T18:19:04;11.30;99.90
40253;DHT22;25972;51.854;4.534;2022-11-15T18:21:33;11.10;99.90
40253;DHT22;25972;51.854;4.534;2022-11-15T18:24:01;11.30;99.90
40253;DHT22;25972;51.854;4.534;2022-11-15T18:26:29;11.30;99.90
40253;DHT22;25972;51.854;4.534;2022-11-15T18:28:57;11.10;99.90
40253;DHT22;25972;51.854;4.534;2022-11-15T18:31:28;11.50;99.90
40253;DHT22;25972;51.854;4.534;2022-11-15T18:33:54;11.50;99.90
40253;DHT22;25972;51.854;4.534;2022-11-15T18:36:23;11.20;99.90
40253;DHT22;25972;51.854;4.534;2022-11-15T18:38:59;11.50;99.90
40253;DHT22;25972;51.854;4.534;2022-11-15T18:41:26;11.20;99.90
40253;DHT22;25972;51.854;4.534;2022-11-15T18:43:59;11.20;99.90
40253;DHT22;25972;51.854;4.534;2022-11-15T18:46:28;11.20;99.90
40253;DHT22;25972;51.854;4.534;2022-11-15T18:48:56;11.30;99.90
40253;DHT22;25972;51.854;4.534;2022-11-15T18:51:25;11.20;99.90
40253;DHT22;25972;51.854;4.534;2022-11-15T18:53:52;11.30;99.90
40253;DHT22;25972;51.854;4.534;2022-11-15T18:56:20;11.50;99.90
40253;DHT22;25972;51.854;4.534;2022-11-15T18:58:48;11.50;99.90
40253;DHT22;25972;51.854;4.534;2022-11-15T19:01:15;11.20;99.90
40253;DHT22;25972;51.854;4.534;2022-11-15T19:03:43;11.50;99.90
40253;DHT22;25972;51.854;4.534;2022-11-15T19:06:13;11.40;99.90
40253;DHT22;25972;51.854;4.534;2022-11-15T19:08:40;11.50;99.90
40253;DHT22;25972;51.854;4.534;2022-11-15T19:13:40;11.10;99.90
40253;DHT22;25972;51.854;4.534;2022-11-15T19:16:06;11.10;99.90